Byron, MI

6:06 AM EST on February 07, 2016 (GMT -0500)
TechTrans - Braden Road | | Change Station
CLOSE
Current Station
Personal Weather Station
Location: Byron, MI
Elevation: 896 ft
Nearby Weather Stations

Elev 896 ft 42.79 °N, 84.08 °W | Updated 33 days ago

Mostly Cloudy
Mostly Cloudy
33 °F
Feels Like 26 °F
N
10
Wind Variable Wind from South
Gusts 18 mph

Today
High -- | Low -- °F
--% Chance of Precip.
Yesterday
High -- | Low -- °F
Precip. -- in
Pressure 29.98 in
Visibility 10.0 miles
Clouds Scattered Clouds 12000 ft
Windchill 26 °F
Dew Point 28 °F
Humidity 83%
Rainfall in
Snow Depth Not available.
7:44 AM 5:56 PM
Waning Crescent, 2% visible
METAR KOZW 071054Z AUTO 18006KT 10SM SCT120 00/M02 A2998 RMK AO2 T00011025
Pressure 29.98 in
Visibility 10.0 miles
Clouds Scattered Clouds 12000 ft
Windchill 26 °F
Dew Point 28 °F
Humidity 83%
Rainfall in
Snow Depth Not available.
7:44 AM 5:56 PM
Waning Crescent, 2% visible
METAR KOZW 071054Z AUTO 18006KT 10SM SCT120 00/M02 A2998 RMK AO2 T00011025

10-Day Weather Forecast

Almanac

Astronomy

Feb. 07, 2016 Rise Set
Actual Time
Civil Twilight
Nautical Twilight
Astronomical Twilight
Moon
Length of Visible Light
Length of Day
Tomorrow will be .
, % of the Moon is Illuminated

Today's Extremes

State Highs State Lows

Community

WunderPhotos

Upload Photos

1,891,170 photos uploaded!

WunderBlog® & News

Nearby

Air Quality

  Air Quality AQ Index Pollutant
Not available.

Snow Depth

Station Depth Elevation

Earthquake Activity

City Distance Mag. Time & Date
Minimum magnitude displayed is 2.5.

Coastal Water Temperatures

Place Temperature

Stations

Nearby Weather Stations

Station Location Temp. Windchill Dew Point Humidity Wind Precip. Elev Updated Type
                   

Watches & Warnings

There are currently no watches in effect.